createdAt,value
2019-06-26T00:02:23.579Z,101965.19
2019-06-26T00:04:55.827Z,101954.19
2019-06-26T00:07:28.066Z,101954.19
2019-06-26T00:10:00.313Z,101959.50
2019-06-26T00:12:32.590Z,101966.16
2019-06-26T00:15:05.121Z,101966.16
2019-06-26T00:17:37.790Z,101985.22
2019-06-26T00:20:10.031Z,101985.22
2019-06-26T00:22:42.250Z,101988.77
2019-06-26T00:25:14.515Z,101989.21
2019-06-26T00:27:46.727Z,101982.59
2019-06-26T00:30:21.233Z,101988.80
2019-06-26T00:32:53.499Z,101985.71
2019-06-26T00:35:25.719Z,101985.72
2019-06-26T00:37:57.943Z,101985.72
2019-06-26T00:40:30.183Z,102002.52
2019-06-26T00:43:02.413Z,102002.95
2019-06-26T00:45:34.607Z,102006.03
2019-06-26T00:48:06.913Z,102000.75
2019-06-26T00:50:39.149Z,102010.03
2019-06-26T00:53:11.472Z,102009.14
2019-06-26T00:55:45.970Z,102014.45
2019-06-26T00:58:19.312Z,102010.89
2019-06-26T01:00:51.524Z,102016.66
2019-06-26T01:03:23.782Z,102012.20
2019-06-26T01:05:55.991Z,102006.90
2019-06-26T01:08:28.466Z,102010.45
2019-06-26T01:11:00.704Z,102004.18
2019-06-26T01:13:32.928Z,102004.18
2019-06-26T01:16:05.179Z,102014.34
2019-06-26T01:18:37.466Z,102011.67
2019-06-26T01:21:09.715Z,102013.02
2019-06-26T01:23:41.937Z,102013.39
2019-06-26T01:26:14.153Z,102017.80
2019-06-26T01:28:46.380Z,102024.39
2019-06-26T01:31:18.583Z,102014.27
2019-06-26T01:33:50.842Z,102013.34
2019-06-26T01:36:23.115Z,102017.71
2019-06-26T01:38:55.331Z,102018.11
2019-06-26T01:41:27.553Z,102020.73
2019-06-26T01:44:13.744Z,102018.92
2019-06-26T01:46:33.719Z,102028.21
2019-06-26T01:49:06.027Z,102023.36
2019-06-26T01:51:38.271Z,102024.23
2019-06-26T01:54:10.556Z,102018.95
2019-06-26T01:56:42.769Z,102022.03
2019-06-26T01:59:14.979Z,102024.66
2019-06-26T02:01:47.222Z,102033.02
2019-06-26T02:04:19.418Z,102030.78
2019-06-26T02:06:51.630Z,102028.98
2019-06-26T02:09:23.902Z,102031.63
2019-06-26T02:11:56.227Z,102042.66
2019-06-26T02:14:31.594Z,102050.59
2019-06-26T02:17:02.433Z,102051.44
2019-06-26T02:19:34.666Z,102063.38
2019-06-26T02:22:06.859Z,102065.92
2019-06-26T02:24:39.138Z,102058.82
2019-06-26T02:27:11.330Z,102065.88
2019-06-26T02:29:43.535Z,102063.19
2019-06-26T02:32:15.811Z,102072.43
2019-06-26T02:34:48.086Z,102067.97
2019-06-26T02:37:20.287Z,102085.20
2019-06-26T02:39:52.496Z,102080.84
2019-06-26T02:42:24.765Z,102089.22
2019-06-26T02:44:56.956Z,102082.86
2019-06-26T02:47:31.482Z,102078.86
2019-06-26T02:50:03.748Z,102082.33
2019-06-26T02:52:35.955Z,102084.00
2019-06-26T02:55:09.339Z,102092.30
2019-06-26T02:57:41.608Z,102096.64
2019-06-26T03:00:14.055Z,102101.98
2019-06-26T03:02:46.336Z,102112.69
2019-06-26T03:05:18.570Z,102113.67
2019-06-26T03:07:50.822Z,102111.09
2019-06-26T03:10:23.052Z,102118.20
2019-06-26T03:12:55.271Z,102118.20
2019-06-26T03:15:27.518Z,102129.69
2019-06-26T03:17:59.741Z,102133.58
2019-06-26T03:20:31.958Z,102136.73
2019-06-26T03:23:04.192Z,102140.41
2019-06-26T03:25:36.396Z,102145.78
2019-06-26T03:28:08.652Z,102150.75
2019-06-26T03:30:40.875Z,102152.54
2019-06-26T03:33:15.361Z,102157.27
2019-06-26T03:35:47.580Z,102163.41
2019-06-26T03:38:19.852Z,102170.44
2019-06-26T03:40:52.088Z,102178.33
2019-06-26T03:43:24.298Z,102186.30
2019-06-26T03:45:56.554Z,102185.92
2019-06-26T03:48:28.883Z,102185.44
2019-06-26T03:51:01.144Z,102185.87
2019-06-26T03:53:33.360Z,102183.25
2019-06-26T03:56:05.455Z,102182.81
2019-06-26T03:58:37.662Z,102191.11
2019-06-26T04:01:09.883Z,102180.86
2019-06-26T04:03:42.116Z,102187.05
2019-06-26T04:06:14.323Z,102187.97
2019-06-26T04:08:46.556Z,102184.41
2019-06-26T04:11:18.855Z,102181.70
2019-06-26T04:13:51.079Z,102178.59
2019-06-26T04:16:23.303Z,102189.61
2019-06-26T04:18:55.529Z,102191.86
2019-06-26T04:21:28.840Z,102194.94
2019-06-26T04:24:02.303Z,102194.13
2019-06-26T04:26:34.514Z,102196.87
2019-06-26T04:29:06.889Z,102207.03
2019-06-26T04:31:39.096Z,102207.06
2019-06-26T04:34:11.344Z,102202.63
2019-06-26T04:36:43.556Z,102199.98
2019-06-26T04:39:15.771Z,102196.95
2019-06-26T04:41:48.102Z,102200.55
2019-06-26T04:44:20.350Z,102209.33
2019-06-26T04:46:52.666Z,102208.49
2019-06-26T04:49:24.881Z,102216.92
2019-06-26T04:51:57.136Z,102212.49
2019-06-26T04:54:29.369Z,102209.87
2019-06-26T04:57:01.647Z,102210.39
2019-06-26T04:59:33.863Z,102222.83
2019-06-26T05:02:06.062Z,102232.14
2019-06-26T05:04:38.367Z,102233.93
2019-06-26T05:07:10.617Z,102229.06
2019-06-26T05:09:42.838Z,102237.42
2019-06-26T05:12:15.068Z,102241.41
2019-06-26T05:14:47.296Z,102238.23
2019-06-26T05:17:19.626Z,102241.32
2019-06-26T05:19:51.904Z,102236.51
2019-06-26T05:22:24.123Z,102240.56
2019-06-26T05:24:57.356Z,102252.59
2019-06-26T05:27:29.577Z,102259.72
2019-06-26T05:30:01.898Z,102271.73
2019-06-26T05:32:34.490Z,102281.50
2019-06-26T05:35:06.728Z,102276.77
2019-06-26T05:37:38.913Z,102271.97
2019-06-26T05:40:11.181Z,102273.79
2019-06-26T05:42:43.747Z,102272.49
2019-06-26T05:45:15.977Z,102272.17
2019-06-26T05:47:48.182Z,102274.04
2019-06-26T05:50:20.444Z,102271.81
2019-06-26T05:52:52.682Z,102280.19
2019-06-26T05:55:24.937Z,102274.06
2019-06-26T05:57:57.180Z,102280.32
2019-06-26T06:00:29.464Z,102283.91
2019-06-26T06:03:01.708Z,102279.12
2019-06-26T06:05:33.917Z,102277.81
2019-06-26T06:08:06.167Z,102285.77
2019-06-26T06:10:38.416Z,102291.06
2019-06-26T06:13:10.644Z,102284.42
2019-06-26T06:15:42.904Z,102293.28
2019-06-26T06:18:15.237Z,102316.36
2019-06-26T06:20:47.546Z,102320.44
2019-06-26T06:23:19.598Z,102321.78
2019-06-26T06:25:51.776Z,102321.37
2019-06-26T06:28:24.040Z,102322.66
2019-06-26T06:30:56.244Z,102329.32
2019-06-26T06:33:28.481Z,102329.32
2019-06-26T06:36:00.761Z,102337.79
2019-06-26T06:38:33.076Z,102344.52
2019-06-26T06:41:05.310Z,102353.42
2019-06-26T06:43:37.673Z,102353.42
2019-06-26T06:46:10.118Z,102352.09
2019-06-26T06:48:42.339Z,102351.67
2019-06-26T06:51:14.558Z,102349.84
2019-06-26T06:53:46.797Z,102350.27
2019-06-26T06:56:19.076Z,102364.89
2019-06-26T06:58:51.266Z,102349.39
2019-06-26T07:01:23.594Z,102368.45
2019-06-26T07:03:55.795Z,102368.45
2019-06-26T07:06:28.053Z,102369.80
2019-06-26T07:09:00.252Z,102373.77
2019-06-26T07:11:32.501Z,102380.42
2019-06-26T07:14:04.823Z,102389.75
2019-06-26T07:16:37.017Z,102393.69
2019-06-26T07:19:09.520Z,102402.05
2019-06-26T07:21:41.795Z,102415.37
2019-06-26T07:24:13.965Z,102408.31
2019-06-26T07:26:46.167Z,102417.62
2019-06-26T07:29:18.391Z,102419.36
2019-06-26T07:31:50.622Z,102424.30
2019-06-26T07:34:22.850Z,102419.09
2019-06-26T07:36:56.048Z,102424.84
2019-06-26T07:39:28.307Z,102432.38
2019-06-26T07:42:00.691Z,102433.23
2019-06-26T07:44:32.950Z,102444.82
2019-06-26T07:47:12.698Z,102454.60
2019-06-26T07:49:39.311Z,102448.42
2019-06-26T07:52:12.637Z,102452.44
2019-06-26T07:54:45.262Z,102455.56
2019-06-26T07:57:17.544Z,102461.84
2019-06-26T07:59:49.851Z,102470.25
2019-06-26T08:02:22.060Z,102472.02
2019-06-26T08:04:54.273Z,102472.89
2019-06-26T08:07:26.542Z,102479.09
2019-06-26T08:09:58.765Z,102483.52
2019-06-26T08:12:30.982Z,102480.89
2019-06-26T08:15:03.247Z,102486.23
2019-06-26T08:17:35.461Z,102495.56
2019-06-26T08:20:07.685Z,102494.21
2019-06-26T08:22:39.933Z,102495.09
2019-06-26T08:25:12.147Z,102487.99
2019-06-26T08:27:44.460Z,102495.55
2019-06-26T08:30:18.958Z,102485.78
2019-06-26T08:32:51.236Z,102485.78
2019-06-26T08:35:23.460Z,102488.03
2019-06-26T08:38:09.949Z,102495.55
2019-06-26T08:40:29.634Z,102497.78
2019-06-26T08:43:02.993Z,102500.02
2019-06-26T08:45:35.247Z,102501.33
2019-06-26T08:48:17.300Z,102506.22
2019-06-26T08:50:41.443Z,102502.66
2019-06-26T08:53:13.680Z,102508.88
2019-06-26T08:55:45.925Z,102509.32
2019-06-26T08:58:20.548Z,102510.21
2019-06-26T09:00:52.767Z,102506.63
2019-06-26T09:03:25.010Z,102498.20
2019-06-26T09:05:57.276Z,102488.41
2019-06-26T09:08:29.572Z,102485.72
2019-06-26T09:11:01.883Z,102486.59
2019-06-26T09:13:34.194Z,102496.31
2019-06-26T09:16:06.406Z,102493.64
2019-06-26T09:18:38.668Z,102506.58
2019-06-26T09:21:12.517Z,102510.61
2019-06-26T09:23:45.154Z,102504.87
2019-06-26T09:26:17.367Z,102504.41
2019-06-26T09:28:49.574Z,102516.36
2019-06-26T09:31:21.843Z,102519.94
2019-06-26T09:33:54.053Z,102516.87
2019-06-26T09:36:26.341Z,102512.43
2019-06-26T09:38:58.560Z,102519.97
2019-06-26T09:41:30.807Z,102528.87
2019-06-26T09:44:05.041Z,102519.98
2019-06-26T09:46:37.303Z,102523.54
2019-06-26T09:49:09.504Z,102524.44
2019-06-26T09:51:41.796Z,102526.66
2019-06-26T09:54:14.070Z,102532.36
2019-06-26T09:56:46.364Z,102527.83
2019-06-26T09:59:18.642Z,102528.27
2019-06-26T10:01:50.850Z,102534.05
2019-06-26T10:04:23.087Z,102547.33
2019-06-26T10:06:57.342Z,102552.67
2019-06-26T10:09:29.606Z,102556.73
2019-06-26T10:12:01.807Z,102565.74
2019-06-26T10:14:46.629Z,102558.64
2019-06-26T10:17:07.955Z,102559.97
2019-06-26T10:19:40.204Z,102557.30
2019-06-26T10:22:12.430Z,102560.39
2019-06-26T10:24:44.692Z,102554.19
2019-06-26T10:27:16.872Z,102558.64
2019-06-26T10:29:49.111Z,102556.41
2019-06-26T10:32:21.360Z,102564.41
2019-06-26T10:34:53.572Z,102567.50
2019-06-26T10:37:25.794Z,102573.70
2019-06-26T10:39:58.017Z,102579.45
2019-06-26T10:42:30.249Z,102593.72
2019-06-26T10:45:02.553Z,102594.16
2019-06-26T10:47:39.544Z,102591.48
2019-06-26T10:50:10.039Z,102585.96
2019-06-26T10:52:42.486Z,102587.23
2019-06-26T10:55:14.743Z,102592.16
2019-06-26T10:57:47.020Z,102590.39
2019-06-26T11:00:19.459Z,102592.63
2019-06-26T11:02:51.721Z,102603.94
2019-06-26T11:05:24.166Z,102593.16
2019-06-26T11:07:56.358Z,102606.06
2019-06-26T11:10:28.565Z,102606.06
2019-06-26T11:13:00.816Z,102602.15
2019-06-26T11:15:33.194Z,102601.30
2019-06-26T11:18:05.590Z,102595.55
2019-06-26T11:20:37.787Z,102595.55
2019-06-26T11:23:10.031Z,102596.41
2019-06-26T11:25:44.411Z,102597.30
2019-06-26T11:28:16.291Z,102591.88
2019-06-26T11:30:48.542Z,102594.65
2019-06-26T11:33:20.766Z,102594.65
2019-06-26T11:35:52.998Z,102601.20
2019-06-26T11:38:25.258Z,102600.86
2019-06-26T11:40:57.480Z,102604.02
2019-06-26T11:43:31.727Z,102610.59
2019-06-26T11:46:04.049Z,102614.47
2019-06-26T11:48:36.369Z,102609.11
2019-06-26T11:51:08.605Z,102614.97
2019-06-26T11:53:40.826Z,102616.73
2019-06-26T11:56:13.120Z,102622.91
2019-06-26T11:58:46.531Z,102619.50
2019-06-26T12:01:18.764Z,102622.22
2019-06-26T12:03:51.000Z,102620.09
2019-06-26T12:06:23.207Z,102615.23
2019-06-26T12:08:55.715Z,102613.91
2019-06-26T12:11:27.926Z,102622.27
2019-06-26T12:14:00.131Z,102626.27
2019-06-26T12:16:32.397Z,102622.66
2019-06-26T12:19:04.590Z,102622.30
2019-06-26T12:21:36.800Z,102618.97
2019-06-26T12:24:09.033Z,102630.62
2019-06-26T12:26:41.245Z,102627.78
2019-06-26T12:29:15.353Z,102622.59
2019-06-26T12:31:47.578Z,102636.92
2019-06-26T12:34:19.796Z,102631.02
2019-06-26T12:36:52.088Z,102633.99
2019-06-26T12:39:24.335Z,102637.20
2019-06-26T12:41:57.277Z,102648.38
2019-06-26T12:44:30.148Z,102640.19
2019-06-26T12:47:02.988Z,102647.14
2019-06-26T12:49:36.018Z,102646.45
2019-06-26T12:52:08.914Z,102638.78
2019-06-26T12:54:41.758Z,102651.76
2019-06-26T12:57:14.610Z,102655.63
2019-06-26T12:59:57.087Z,102658.80
2019-06-26T13:02:21.937Z,102648.43
2019-06-26T13:04:54.751Z,102649.80
2019-06-26T13:07:27.581Z,102647.78
2019-06-26T13:10:00.522Z,102637.45
2019-06-26T13:12:33.394Z,102641.67
2019-06-26T13:15:06.176Z,102644.21
2019-06-26T13:17:42.087Z,102644.21
2019-06-26T13:20:16.289Z,102655.06
2019-06-26T13:22:49.154Z,102646.55
2019-06-26T13:25:21.976Z,102641.02
2019-06-26T13:27:54.787Z,102640.92
2019-06-26T13:30:27.575Z,102644.25
2019-06-26T13:33:00.383Z,102639.94
2019-06-26T13:35:33.252Z,102629.20
2019-06-26T13:38:06.015Z,102631.54
2019-06-26T13:40:41.122Z,102628.45
2019-06-26T13:43:13.314Z,102628.45
2019-06-26T13:45:46.253Z,102631.44
2019-06-26T13:48:20.189Z,102623.95
2019-06-26T13:51:08.083Z,102623.95
2019-06-26T13:53:27.540Z,102621.30
2019-06-26T13:56:00.247Z,102617.17
2019-06-26T13:58:33.056Z,102616.23
2019-06-26T14:01:05.899Z,102616.23
2019-06-26T14:03:38.758Z,102617.23
2019-06-26T14:06:11.625Z,102607.55
2019-06-26T14:08:44.415Z,102607.55
2019-06-26T14:11:17.227Z,102600.27
2019-06-26T14:13:50.035Z,102604.88
2019-06-26T14:16:22.871Z,102599.78
2019-06-26T14:18:55.747Z,102598.73
2019-06-26T14:21:28.602Z,102592.55
2019-06-26T14:24:02.537Z,102592.05
2019-06-26T14:26:35.381Z,102601.40
2019-06-26T14:29:20.382Z,102598.83
2019-06-26T14:31:41.573Z,102591.70
2019-06-26T14:34:13.785Z,102602.70
2019-06-26T14:36:45.989Z,102605.23
2019-06-26T14:39:18.233Z,102604.87
2019-06-26T14:41:50.454Z,102607.25
2019-06-26T14:44:22.851Z,102611.85
2019-06-26T14:46:55.097Z,102620.36
2019-06-26T14:49:27.254Z,102619.66
2019-06-26T14:52:00.466Z,102621.05
2019-06-26T14:54:32.707Z,102617.95
2019-06-26T14:57:04.931Z,102615.80
2019-06-26T14:59:37.472Z,102614.92
2019-06-26T15:02:09.725Z,102615.84
2019-06-26T15:04:45.194Z,102625.69
2019-06-26T15:07:15.982Z,102630.74
2019-06-26T15:09:48.426Z,102626.81
2019-06-26T15:12:20.661Z,102624.62
2019-06-26T15:14:52.880Z,102638.49
2019-06-26T15:17:25.147Z,102632.77
2019-06-26T15:19:57.404Z,102641.60
2019-06-26T15:22:29.648Z,102632.59
2019-06-26T15:25:01.921Z,102631.64
2019-06-26T15:27:34.188Z,102633.42
2019-06-26T15:30:06.480Z,102627.70
2019-06-26T15:32:38.719Z,102625.89
2019-06-26T15:35:11.126Z,102631.21
2019-06-26T15:37:44.844Z,102635.38
2019-06-26T15:40:17.354Z,102627.00
2019-06-26T15:42:49.632Z,102638.16
2019-06-26T15:45:21.844Z,102634.64
2019-06-26T15:47:54.114Z,102624.84
2019-06-26T15:50:26.457Z,102623.53
2019-06-26T15:52:58.649Z,102630.63
2019-06-26T15:55:30.918Z,102629.73
2019-06-26T15:58:03.355Z,102629.28
2019-06-26T16:00:35.770Z,102626.17
2019-06-26T16:03:07.995Z,102633.23
2019-06-26T16:05:40.227Z,102630.13
2019-06-26T16:08:12.550Z,102630.19
2019-06-26T16:10:44.753Z,102624.38
2019-06-26T16:13:18.531Z,102621.45
2019-06-26T16:15:50.712Z,102630.89
2019-06-26T16:18:22.990Z,102625.14
2019-06-26T16:20:55.214Z,102634.58
2019-06-26T16:23:27.643Z,102628.39
2019-06-26T16:25:59.906Z,102630.63
2019-06-26T16:28:32.138Z,102631.53
2019-06-26T16:31:04.431Z,102619.92
2019-06-26T16:33:37.016Z,102627.94
2019-06-26T16:36:09.050Z,102628.36
2019-06-26T16:38:41.352Z,102631.45
2019-06-26T16:41:13.653Z,102628.78
2019-06-26T16:43:45.893Z,102626.55
2019-06-26T16:46:18.276Z,102615.89
2019-06-26T16:48:50.541Z,102619.92
2019-06-26T16:51:22.774Z,102624.84
2019-06-26T16:53:54.995Z,102624.17
2019-06-26T16:56:27.378Z,102627.43
2019-06-26T16:59:00.187Z,102624.95
2019-06-26T17:01:33.036Z,102628.21
2019-06-26T17:04:05.872Z,102635.52
2019-06-26T17:06:38.671Z,102631.55
2019-06-26T17:09:11.425Z,102642.86
2019-06-26T17:11:44.246Z,102640.02
2019-06-26T17:14:17.034Z,102648.44
2019-06-26T17:16:49.884Z,102645.11
2019-06-26T17:19:22.769Z,102650.30
2019-06-26T17:21:55.591Z,102650.30
2019-06-26T17:24:28.535Z,102642.31
2019-06-26T17:27:01.378Z,102643.80
2019-06-26T17:29:34.260Z,102645.68
2019-06-26T17:32:07.330Z,102644.77
2019-06-26T17:34:40.438Z,102637.85
2019-06-26T17:37:12.940Z,102630.53
2019-06-26T17:39:45.387Z,102638.02
2019-06-26T17:42:18.755Z,102638.94
2019-06-26T17:44:52.717Z,102638.13
2019-06-26T17:47:24.952Z,102641.31
2019-06-26T17:49:58.570Z,102645.70
2019-06-26T17:52:34.474Z,102643.86
2019-06-26T17:55:06.433Z,102646.95
2019-06-26T17:57:38.729Z,102651.33
2019-06-26T18:00:11.303Z,102649.00
2019-06-26T18:02:43.582Z,102655.12
2019-06-26T18:05:15.888Z,102663.94
2019-06-26T18:07:48.157Z,102657.50
2019-06-26T18:10:20.408Z,102658.28
2019-06-26T18:12:52.737Z,102660.84
2019-06-26T18:15:25.036Z,102662.80
2019-06-26T18:17:57.249Z,102665.25
2019-06-26T18:20:29.709Z,102654.14
2019-06-26T18:23:07.121Z,102658.97
2019-06-26T18:25:35.966Z,102656.87
2019-06-26T18:28:08.559Z,102657.12
2019-06-26T18:30:40.821Z,102661.70
2019-06-26T18:33:13.121Z,102658.70
2019-06-26T18:35:45.420Z,102658.02
2019-06-26T18:38:17.698Z,102660.12
2019-06-26T18:40:49.919Z,102658.52
2019-06-26T18:43:22.224Z,102661.33
2019-06-26T18:45:54.531Z,102652.27
2019-06-26T18:48:26.786Z,102649.97
2019-06-26T18:50:59.036Z,102656.99
2019-06-26T18:53:31.266Z,102660.58
2019-06-26T18:56:03.486Z,102656.98
2019-06-26T18:58:35.886Z,102658.16
2019-06-26T19:01:08.293Z,102669.00
2019-06-26T19:03:40.645Z,102657.64
2019-06-26T19:06:13.038Z,102649.89
2019-06-26T19:08:45.265Z,102658.56
2019-06-26T19:11:17.510Z,102655.41
2019-06-26T19:13:49.791Z,102658.99
2019-06-26T19:16:22.061Z,102654.16
2019-06-26T19:18:54.674Z,102657.07
2019-06-26T19:21:26.959Z,102659.58
2019-06-26T19:24:09.495Z,102660.38
2019-06-26T19:26:33.214Z,102658.48
2019-06-26T19:29:05.443Z,102660.23
2019-06-26T19:31:37.951Z,102671.11
2019-06-26T19:34:10.234Z,102670.16
2019-06-26T19:36:49.901Z,102669.10
2019-06-26T19:39:16.590Z,102669.76
2019-06-26T19:41:48.858Z,102684.73
2019-06-26T19:44:21.103Z,102683.35
2019-06-26T19:46:53.307Z,102680.02
2019-06-26T19:49:25.533Z,102687.42
2019-06-26T19:51:57.776Z,102690.44
2019-06-26T19:54:32.349Z,102684.99
2019-06-26T19:57:03.978Z,102693.28
2019-06-26T19:59:36.232Z,102695.83
2019-06-26T20:02:08.466Z,102705.39
2019-06-26T20:04:41.768Z,102706.12
2019-06-26T20:07:14.001Z,102705.09
2019-06-26T20:09:46.252Z,102709.78
2019-06-26T20:12:18.494Z,102713.19
2019-06-26T20:14:50.843Z,102715.29
2019-06-26T20:17:23.022Z,102709.94
2019-06-26T20:19:55.249Z,102719.07
2019-06-26T20:22:27.319Z,102728.32
2019-06-26T20:24:59.533Z,102726.59
2019-06-26T20:27:31.721Z,102726.95
2019-06-26T20:30:03.981Z,102724.77
2019-06-26T20:32:36.354Z,102727.30
2019-06-26T20:35:08.575Z,102732.03
2019-06-26T20:37:40.780Z,102742.88
2019-06-26T20:40:13.072Z,102741.36
2019-06-26T20:42:45.321Z,102734.69
2019-06-26T20:45:17.522Z,102736.06
2019-06-26T20:47:49.777Z,102731.80
2019-06-26T20:50:22.031Z,102740.84
2019-06-26T20:52:54.290Z,102742.80
2019-06-26T20:55:26.914Z,102745.91
2019-06-26T20:57:59.137Z,102739.58
2019-06-26T21:00:31.352Z,102737.23
2019-06-26T21:03:04.041Z,102745.97
2019-06-26T21:05:36.209Z,102749.44
2019-06-26T21:08:08.448Z,102748.45
2019-06-26T21:10:40.768Z,102738.68
2019-06-26T21:13:12.976Z,102740.00
2019-06-26T21:15:45.160Z,102749.66
2019-06-26T21:18:17.455Z,102735.96
2019-06-26T21:20:49.693Z,102745.13
2019-06-26T21:23:23.566Z,102759.25
2019-06-26T21:25:57.028Z,102752.91
2019-06-26T21:28:29.229Z,102753.25
2019-06-26T21:31:01.590Z,102756.23
2019-06-26T21:33:34.120Z,102750.84
2019-06-26T21:36:06.291Z,102756.13
2019-06-26T21:38:39.312Z,102754.41
2019-06-26T21:41:11.549Z,102753.09
2019-06-26T21:43:45.356Z,102750.03
2019-06-26T21:46:17.542Z,102755.81
2019-06-26T21:48:49.784Z,102761.48
2019-06-26T21:51:21.991Z,102758.70
2019-06-26T21:53:56.460Z,102758.45
2019-06-26T21:56:46.089Z,102760.25
2019-06-26T21:59:36.251Z,102762.55
2019-06-26T22:02:26.824Z,102767.77
2019-06-26T22:05:00.879Z,102766.59
2019-06-26T22:07:34.794Z,102768.33
2019-06-26T22:10:13.292Z,102775.63
2019-06-26T22:12:45.857Z,102769.05
2019-06-26T22:15:18.137Z,102768.28
2019-06-26T22:17:50.518Z,102778.91
2019-06-26T22:20:22.888Z,102773.28
2019-06-26T22:22:55.518Z,102775.16
2019-06-26T22:25:27.942Z,102778.16
2019-06-26T22:28:00.210Z,102778.38
2019-06-26T22:30:33.757Z,102785.97
2019-06-26T22:33:05.998Z,102783.33
2019-06-26T22:35:38.238Z,102787.46
2019-06-26T22:38:10.465Z,102785.44
2019-06-26T22:40:42.709Z,102784.22
2019-06-26T22:43:14.946Z,102787.25
2019-06-26T22:45:47.410Z,102794.30
2019-06-26T22:48:19.627Z,102790.62
2019-06-26T22:50:51.843Z,102795.23
2019-06-26T22:53:24.107Z,102784.09
2019-06-26T22:56:07.038Z,102787.13
2019-06-26T22:58:30.728Z,102784.68
2019-06-26T23:01:02.976Z,102792.54
2019-06-26T23:03:35.268Z,102791.45
2019-06-26T23:06:07.537Z,102792.31
2019-06-26T23:08:39.761Z,102794.17
2019-06-26T23:11:12.004Z,102788.92
2019-06-26T23:13:44.223Z,102792.31
2019-06-26T23:16:16.431Z,102797.98
2019-06-26T23:18:49.295Z,102794.21
2019-06-26T23:21:21.499Z,102786.60
2019-06-26T23:23:53.726Z,102791.79
2019-06-26T23:26:25.948Z,102783.76
2019-06-26T23:28:58.160Z,102794.66
2019-06-26T23:31:30.404Z,102779.31
2019-06-26T23:34:02.647Z,102789.60
2019-06-26T23:36:34.846Z,102794.19
2019-06-26T23:39:07.108Z,102790.25
2019-06-26T23:41:39.329Z,102794.84
2019-06-26T23:44:11.543Z,102795.73
2019-06-26T23:46:43.807Z,102804.67
2019-06-26T23:49:16.018Z,102795.91
2019-06-26T23:51:48.253Z,102795.20
2019-06-26T23:54:20.473Z,102790.64
2019-06-26T23:56:52.707Z,102794.97
2019-06-26T23:59:24.943Z,102797.52
